sensor_id;sensor_type;location;lat;lon;timestamp;temperature;humidity
65752;DHT22;52486;51.098;13.770;2022-07-03T00:01:25;27.20;42.60
65752;DHT22;52486;51.098;13.770;2022-07-03T00:03:51;27.20;42.60
65752;DHT22;52486;51.098;13.770;2022-07-03T00:06:17;27.20;42.60
65752;DHT22;52486;51.098;13.770;2022-07-03T00:08:43;27.20;42.70
65752;DHT22;52486;51.098;13.770;2022-07-03T00:11:09;27.20;42.70
65752;DHT22;52486;51.098;13.770;2022-07-03T00:13:35;27.20;42.60
65752;DHT22;52486;51.098;13.770;2022-07-03T00:16:00;27.10;43.30
65752;DHT22;52486;51.098;13.770;2022-07-03T00:18:26;27.10;42.60
65752;DHT22;52486;51.098;13.770;2022-07-03T00:21:11;27.10;42.60
65752;DHT22;52486;51.098;13.770;2022-07-03T00:23:51;27.10;42.60
65752;DHT22;52486;51.098;13.770;2022-07-03T00:26:20;27.10;42.60
65752;DHT22;52486;51.098;13.770;2022-07-03T00:28:46;27.10;42.60
65752;DHT22;52486;51.098;13.770;2022-07-03T00:31:13;27.10;42.60
65752;DHT22;52486;51.098;13.770;2022-07-03T00:33:39;27.10;42.60
65752;DHT22;52486;51.098;13.770;2022-07-03T00:36:06;27.10;42.60
65752;DHT22;52486;51.098;13.770;2022-07-03T00:38:32;27.10;42.60
65752;DHT22;52486;51.098;13.770;2022-07-03T00:41:00;27.10;42.60
65752;DHT22;52486;51.098;13.770;2022-07-03T00:43:26;27.10;42.60
65752;DHT22;52486;51.098;13.770;2022-07-03T00:45:53;27.10;42.60
65752;DHT22;52486;51.098;13.770;2022-07-03T00:48:20;27.00;42.60
65752;DHT22;52486;51.098;13.770;2022-07-03T00:50:51;27.00;42.60
65752;DHT22;52486;51.098;13.770;2022-07-03T00:53:43;27.00;42.60
65752;DHT22;52486;51.098;13.770;2022-07-03T00:56:13;27.00;42.60
65752;DHT22;52486;51.098;13.770;2022-07-03T00:58:40;27.00;42.60
65752;DHT22;52486;51.098;13.770;2022-07-03T01:01:07;27.00;42.60
65752;DHT22;52486;51.098;13.770;2022-07-03T01:03:40;27.00;42.60
65752;DHT22;52486;51.098;13.770;2022-07-03T01:06:13;27.00;42.60
65752;DHT22;52486;51.098;13.770;2022-07-03T01:08:51;27.00;42.60
65752;DHT22;52486;51.098;13.770;2022-07-03T01:16:36;27.00;42.60
65752;DHT22;52486;51.098;13.770;2022-07-03T01:19:35;26.90;42.50
65752;DHT22;52486;51.098;13.770;2022-07-03T01:30:07;26.90;42.60
65752;DHT22;52486;51.098;13.770;2022-07-03T01:32:39;26.90;42.60
65752;DHT22;52486;51.098;13.770;2022-07-03T01:35:08;26.90;42.60
65752;DHT22;52486;51.098;13.770;2022-07-03T01:37:35;26.90;42.60
65752;DHT22;52486;51.098;13.770;2022-07-03T01:40:03;26.90;42.60
65752;DHT22;52486;51.098;13.770;2022-07-03T01:42:32;26.90;42.60
65752;DHT22;52486;51.098;13.770;2022-07-03T01:44:59;26.90;42.60
65752;DHT22;52486;51.098;13.770;2022-07-03T01:47:26;26.90;42.60
65752;DHT22;52486;51.098;13.770;2022-07-03T01:49:53;26.90;42.60
65752;DHT22;52486;51.098;13.770;2022-07-03T01:52:20;26.80;42.50
65752;DHT22;52486;51.098;13.770;2022-07-03T01:54:47;26.80;42.50
65752;DHT22;52486;51.098;13.770;2022-07-03T01:57:13;26.80;42.50
65752;DHT22;52486;51.098;13.770;2022-07-03T01:59:39;26.80;43.20
65752;DHT22;52486;51.098;13.770;2022-07-03T02:02:22;26.80;42.50
65752;DHT22;52486;51.098;13.770;2022-07-03T02:05:26;26.80;42.50
65752;DHT22;52486;51.098;13.770;2022-07-03T02:10:46;26.80;42.50
65752;DHT22;52486;51.098;13.770;2022-07-03T02:13:21;26.80;42.50
65752;DHT22;52486;51.098;13.770;2022-07-03T02:15:50;26.80;42.50
65752;DHT22;52486;51.098;13.770;2022-07-03T02:21:03;26.80;42.60
65752;DHT22;52486;51.098;13.770;2022-07-03T02:23:32;26.70;42.50
65752;DHT22;52486;51.098;13.770;2022-07-03T02:26:02;26.70;42.50
65752;DHT22;52486;51.098;13.770;2022-07-03T02:28:51;26.70;42.50
65752;DHT22;52486;51.098;13.770;2022-07-03T02:31:21;26.70;42.50
65752;DHT22;52486;51.098;13.770;2022-07-03T02:33:52;26.70;42.60
65752;DHT22;52486;51.098;13.770;2022-07-03T02:36:22;26.70;42.50
65752;DHT22;52486;51.098;13.770;2022-07-03T02:38:53;26.70;42.50
65752;DHT22;52486;51.098;13.770;2022-07-03T02:41:39;26.70;42.50
65752;DHT22;52486;51.098;13.770;2022-07-03T02:44:45;26.70;42.50
65752;DHT22;52486;51.098;13.770;2022-07-03T02:47:16;26.70;42.50
65752;DHT22;52486;51.098;13.770;2022-07-03T02:49:53;26.70;42.60
65752;DHT22;52486;51.098;13.770;2022-07-03T03:03:49;26.70;42.60
65752;DHT22;52486;51.098;13.770;2022-07-03T03:06:21;26.60;42.60
65752;DHT22;52486;51.098;13.770;2022-07-03T03:08:52;26.60;42.60
65752;DHT22;52486;51.098;13.770;2022-07-03T03:11:31;26.60;42.60
65752;DHT22;52486;51.098;13.770;2022-07-03T03:14:00;26.60;42.60
65752;DHT22;52486;51.098;13.770;2022-07-03T03:16:28;26.60;42.60
65752;DHT22;52486;51.098;13.770;2022-07-03T03:18:53;26.60;42.60
65752;DHT22;52486;51.098;13.770;2022-07-03T03:21:20;26.60;42.60
65752;DHT22;52486;51.098;13.770;2022-07-03T03:23:51;26.60;42.60
65752;DHT22;52486;51.098;13.770;2022-07-03T03:26:24;26.60;42.60
65752;DHT22;52486;51.098;13.770;2022-07-03T03:28:51;26.60;42.60
65752;DHT22;52486;51.098;13.770;2022-07-03T03:31:17;26.60;42.60
65752;DHT22;52486;51.098;13.770;2022-07-03T03:33:46;26.60;42.60
65752;DHT22;52486;51.098;13.770;2022-07-03T03:36:15;26.60;42.70
65752;DHT22;52486;51.098;13.770;2022-07-03T03:38:44;26.60;42.60
65752;DHT22;52486;51.098;13.770;2022-07-03T03:41:10;26.60;42.70
65752;DHT22;52486;51.098;13.770;2022-07-03T03:43:36;26.60;42.60
65752;DHT22;52486;51.098;13.770;2022-07-03T03:46:02;26.50;42.60
65752;DHT22;52486;51.098;13.770;2022-07-03T03:48:29;26.50;42.60
65752;DHT22;52486;51.098;13.770;2022-07-03T03:50:56;26.60;42.60
65752;DHT22;52486;51.098;13.770;2022-07-03T03:53:23;26.50;42.60
65752;DHT22;52486;51.098;13.770;2022-07-03T03:56:05;26.50;42.60
65752;DHT22;52486;51.098;13.770;2022-07-03T03:58:35;26.50;42.60
65752;DHT22;52486;51.098;13.770;2022-07-03T04:01:02;26.50;42.60
65752;DHT22;52486;51.098;13.770;2022-07-03T04:03:29;26.50;42.60
65752;DHT22;52486;51.098;13.770;2022-07-03T04:05:55;26.50;42.60
65752;DHT22;52486;51.098;13.770;2022-07-03T04:08:22;26.50;42.60
65752;DHT22;52486;51.098;13.770;2022-07-03T04:10:48;26.50;42.60
65752;DHT22;52486;51.098;13.770;2022-07-03T04:13:16;26.50;42.60
65752;DHT22;52486;51.098;13.770;2022-07-03T04:15:41;26.50;42.60
65752;DHT22;52486;51.098;13.770;2022-07-03T04:18:08;26.50;42.60
65752;DHT22;52486;51.098;13.770;2022-07-03T04:20:33;26.50;42.60
65752;DHT22;52486;51.098;13.770;2022-07-03T04:23:00;26.50;42.60
65752;DHT22;52486;51.098;13.770;2022-07-03T04:25:25;26.50;42.60
65752;DHT22;52486;51.098;13.770;2022-07-03T04:27:51;26.50;42.60
65752;DHT22;52486;51.098;13.770;2022-07-03T04:30:17;26.50;42.60
65752;DHT22;52486;51.098;13.770;2022-07-03T04:32:43;26.50;42.60
65752;DHT22;52486;51.098;13.770;2022-07-03T04:35:09;26.50;42.60
65752;DHT22;52486;51.098;13.770;2022-07-03T04:37:35;26.50;42.70
65752;DHT22;52486;51.098;13.770;2022-07-03T04:40:01;26.40;42.60
65752;DHT22;52486;51.098;13.770;2022-07-03T04:42:26;26.50;42.60
65752;DHT22;52486;51.098;13.770;2022-07-03T04:44:52;26.40;42.60
65752;DHT22;52486;51.098;13.770;2022-07-03T04:47:18;26.40;42.60
65752;DHT22;52486;51.098;13.770;2022-07-03T04:49:44;26.40;42.60
65752;DHT22;52486;51.098;13.770;2022-07-03T04:52:10;26.40;42.60
65752;DHT22;52486;51.098;13.770;2022-07-03T04:54:36;26.40;42.60
65752;DHT22;52486;51.098;13.770;2022-07-03T04:57:02;26.40;42.60
65752;DHT22;52486;51.098;13.770;2022-07-03T04:59:28;26.40;42.60
65752;DHT22;52486;51.098;13.770;2022-07-03T05:01:53;26.40;42.70
65752;DHT22;52486;51.098;13.770;2022-07-03T05:04:19;26.40;42.60
65752;DHT22;52486;51.098;13.770;2022-07-03T05:06:45;26.40;42.70
65752;DHT22;52486;51.098;13.770;2022-07-03T05:09:11;26.40;42.60
65752;DHT22;52486;51.098;13.770;2022-07-03T05:11:37;26.40;42.60
65752;DHT22;52486;51.098;13.770;2022-07-03T05:14:04;26.40;42.70
65752;DHT22;52486;51.098;13.770;2022-07-03T05:16:30;26.40;42.60
65752;DHT22;52486;51.098;13.770;2022-07-03T05:18:56;26.40;42.70
65752;DHT22;52486;51.098;13.770;2022-07-03T05:21:21;26.40;43.30
65752;DHT22;52486;51.098;13.770;2022-07-03T05:23:47;26.40;42.70
65752;DHT22;52486;51.098;13.770;2022-07-03T05:26:13;26.40;42.70
65752;DHT22;52486;51.098;13.770;2022-07-03T05:28:38;26.40;42.70
65752;DHT22;52486;51.098;13.770;2022-07-03T05:31:04;26.40;42.70
65752;DHT22;52486;51.098;13.770;2022-07-03T05:33:30;26.40;42.70
65752;DHT22;52486;51.098;13.770;2022-07-03T05:35:57;26.40;42.70
65752;DHT22;52486;51.098;13.770;2022-07-03T05:38:23;26.40;42.70
65752;DHT22;52486;51.098;13.770;2022-07-03T05:41:07;26.40;42.70
65752;DHT22;52486;51.098;13.770;2022-07-03T05:43:32;26.40;42.70
65752;DHT22;52486;51.098;13.770;2022-07-03T05:45:58;26.40;42.80
65752;DHT22;52486;51.098;13.770;2022-07-03T05:48:24;26.40;42.80
65752;DHT22;52486;51.098;13.770;2022-07-03T05:50:50;26.40;42.70
65752;DHT22;52486;51.098;13.770;2022-07-03T05:53:16;26.40;42.80
65752;DHT22;52486;51.098;13.770;2022-07-03T05:55:42;26.40;42.80
65752;DHT22;52486;51.098;13.770;2022-07-03T05:58:07;26.40;42.80
65752;DHT22;52486;51.098;13.770;2022-07-03T06:00:33;26.30;42.70
65752;DHT22;52486;51.098;13.770;2022-07-03T06:02:59;26.40;43.50
65752;DHT22;52486;51.098;13.770;2022-07-03T06:05:24;26.40;42.80
65752;DHT22;52486;51.098;13.770;2022-07-03T06:07:51;26.40;42.80
65752;DHT22;52486;51.098;13.770;2022-07-03T06:10:17;26.40;42.80
65752;DHT22;52486;51.098;13.770;2022-07-03T06:12:43;26.40;42.80
65752;DHT22;52486;51.098;13.770;2022-07-03T06:15:08;26.40;42.80
65752;DHT22;52486;51.098;13.770;2022-07-03T06:17:35;26.40;42.80
65752;DHT22;52486;51.098;13.770;2022-07-03T06:20:02;26.40;42.80
65752;DHT22;52486;51.098;13.770;2022-07-03T06:22:28;26.40;42.80
65752;DHT22;52486;51.098;13.770;2022-07-03T06:24:53;26.40;42.80
65752;DHT22;52486;51.098;13.770;2022-07-03T06:27:19;26.40;42.80
65752;DHT22;52486;51.098;13.770;2022-07-03T06:29:44;26.40;42.80
65752;DHT22;52486;51.098;13.770;2022-07-03T06:32:10;26.40;42.80
65752;DHT22;52486;51.098;13.770;2022-07-03T06:34:36;26.40;42.80
65752;DHT22;52486;51.098;13.770;2022-07-03T06:37:01;26.40;42.80
65752;DHT22;52486;51.098;13.770;2022-07-03T06:39:27;26.40;42.80
65752;DHT22;52486;51.098;13.770;2022-07-03T06:41:53;26.40;42.90
65752;DHT22;52486;51.098;13.770;2022-07-03T06:44:18;26.40;42.90
65752;DHT22;52486;51.098;13.770;2022-07-03T06:46:44;26.40;42.80
65752;DHT22;52486;51.098;13.770;2022-07-03T06:49:10;26.40;42.80
65752;DHT22;52486;51.098;13.770;2022-07-03T06:51:35;26.40;42.80
65752;DHT22;52486;51.098;13.770;2022-07-03T06:54:01;26.40;42.80
65752;DHT22;52486;51.098;13.770;2022-07-03T06:56:27;26.40;42.80
65752;DHT22;52486;51.098;13.770;2022-07-03T06:58:52;26.40;42.90
65752;DHT22;52486;51.098;13.770;2022-07-03T07:01:18;26.40;42.80
65752;DHT22;52486;51.098;13.770;2022-07-03T07:03:43;26.40;42.80
65752;DHT22;52486;51.098;13.770;2022-07-03T07:06:09;26.40;42.80
65752;DHT22;52486;51.098;13.770;2022-07-03T07:08:35;26.40;42.80
65752;DHT22;52486;51.098;13.770;2022-07-03T07:11:00;26.40;42.80
65752;DHT22;52486;51.098;13.770;2022-07-03T07:13:27;26.40;42.90
65752;DHT22;52486;51.098;13.770;2022-07-03T07:15:53;26.40;42.90
65752;DHT22;52486;51.098;13.770;2022-07-03T07:18:18;26.40;42.80
65752;DHT22;52486;51.098;13.770;2022-07-03T07:20:44;26.40;42.80
65752;DHT22;52486;51.098;13.770;2022-07-03T07:23:09;26.40;42.90
65752;DHT22;52486;51.098;13.770;2022-07-03T07:25:36;26.40;42.80
65752;DHT22;52486;51.098;13.770;2022-07-03T07:28:01;26.40;42.90
65752;DHT22;52486;51.098;13.770;2022-07-03T07:30:27;26.40;42.90
65752;DHT22;52486;51.098;13.770;2022-07-03T07:32:53;26.40;42.90
65752;DHT22;52486;51.098;13.770;2022-07-03T07:35:18;26.50;43.00
65752;DHT22;52486;51.098;13.770;2022-07-03T07:37:44;26.50;43.00
65752;DHT22;52486;51.098;13.770;2022-07-03T07:40:10;26.50;43.00
65752;DHT22;52486;51.098;13.770;2022-07-03T07:42:36;26.50;43.00
65752;DHT22;52486;51.098;13.770;2022-07-03T07:45:02;26.50;43.00
65752;DHT22;52486;51.098;13.770;2022-07-03T07:47:27;26.50;43.00
65752;DHT22;52486;51.098;13.770;2022-07-03T07:49:53;26.50;43.00
65752;DHT22;52486;51.098;13.770;2022-07-03T07:52:18;26.50;42.90
65752;DHT22;52486;51.098;13.770;2022-07-03T07:54:44;26.50;43.00
65752;DHT22;52486;51.098;13.770;2022-07-03T07:57:10;26.50;43.00
65752;DHT22;52486;51.098;13.770;2022-07-03T07:59:35;26.50;43.00
65752;DHT22;52486;51.098;13.770;2022-07-03T08:02:01;26.50;43.00
65752;DHT22;52486;51.098;13.770;2022-07-03T08:04:45;26.50;43.00
65752;DHT22;52486;51.098;13.770;2022-07-03T08:07:29;26.50;43.00
65752;DHT22;52486;51.098;13.770;2022-07-03T08:09:55;26.50;43.00
65752;DHT22;52486;51.098;13.770;2022-07-03T08:12:21;26.50;43.00
65752;DHT22;52486;51.098;13.770;2022-07-03T08:14:47;26.50;43.00
65752;DHT22;52486;51.098;13.770;2022-07-03T08:17:12;26.50;43.00
65752;DHT22;52486;51.098;13.770;2022-07-03T08:19:38;26.60;43.10
65752;DHT22;52486;51.098;13.770;2022-07-03T08:22:04;26.50;43.00
65752;DHT22;52486;51.098;13.770;2022-07-03T08:24:29;26.50;43.00
65752;DHT22;52486;51.098;13.770;2022-07-03T08:26:55;26.60;43.10
65752;DHT22;52486;51.098;13.770;2022-07-03T08:29:20;26.60;43.10
65752;DHT22;52486;51.098;13.770;2022-07-03T08:31:46;26.60;43.10
65752;DHT22;52486;51.098;13.770;2022-07-03T08:34:12;26.60;43.10
65752;DHT22;52486;51.098;13.770;2022-07-03T08:36:42;26.60;43.10
65752;DHT22;52486;51.098;13.770;2022-07-03T08:39:08;26.60;43.10
65752;DHT22;52486;51.098;13.770;2022-07-03T08:41:37;26.60;43.10
65752;DHT22;52486;51.098;13.770;2022-07-03T08:44:04;26.60;43.10
65752;DHT22;52486;51.098;13.770;2022-07-03T08:46:31;26.60;43.10
65752;DHT22;52486;51.098;13.770;2022-07-03T08:49:01;26.60;43.10
65752;DHT22;52486;51.098;13.770;2022-07-03T08:51:27;26.60;43.10
65752;DHT22;52486;51.098;13.770;2022-07-03T08:53:54;26.60;43.10
65752;DHT22;52486;51.098;13.770;2022-07-03T08:56:23;26.60;43.10
65752;DHT22;52486;51.098;13.770;2022-07-03T08:58:49;26.70;43.20
65752;DHT22;52486;51.098;13.770;2022-07-03T09:01:16;26.70;43.20
65752;DHT22;52486;51.098;13.770;2022-07-03T09:03:43;26.70;43.20
65752;DHT22;52486;51.098;13.770;2022-07-03T09:06:11;26.70;43.20
65752;DHT22;52486;51.098;13.770;2022-07-03T09:08:37;26.70;43.10
65752;DHT22;52486;51.098;13.770;2022-07-03T09:11:04;26.70;43.10
65752;DHT22;52486;51.098;13.770;2022-07-03T09:13:29;26.70;43.20
65752;DHT22;52486;51.098;13.770;2022-07-03T09:15:55;26.70;43.10
65752;DHT22;52486;51.098;13.770;2022-07-03T09:18:40;26.70;43.10
65752;DHT22;52486;51.098;13.770;2022-07-03T09:21:06;26.70;43.10
65752;DHT22;52486;51.098;13.770;2022-07-03T09:23:36;26.70;43.10
65752;DHT22;52486;51.098;13.770;2022-07-03T09:26:03;26.70;43.10
65752;DHT22;52486;51.098;13.770;2022-07-03T09:28:45;26.80;43.10
65752;DHT22;52486;51.098;13.770;2022-07-03T09:31:16;26.80;43.10
65752;DHT22;52486;51.098;13.770;2022-07-03T09:33:55;26.80;43.80
65752;DHT22;52486;51.098;13.770;2022-07-03T09:36:22;26.80;43.10
65752;DHT22;52486;51.098;13.770;2022-07-03T09:38:49;26.80;43.10
65752;DHT22;52486;51.098;13.770;2022-07-03T09:41:15;26.80;43.10
65752;DHT22;52486;51.098;13.770;2022-07-03T09:43:44;26.80;43.10
65752;DHT22;52486;51.098;13.770;2022-07-03T09:46:10;26.90;43.10
65752;DHT22;52486;51.098;13.770;2022-07-03T09:48:40;26.90;43.20
65752;DHT22;52486;51.098;13.770;2022-07-03T09:51:21;26.90;43.10
65752;DHT22;52486;51.098;13.770;2022-07-03T09:53:56;26.90;43.10
65752;DHT22;52486;51.098;13.770;2022-07-03T09:56:42;26.90;43.10
65752;DHT22;52486;51.098;13.770;2022-07-03T09:59:12;26.90;43.10
65752;DHT22;52486;51.098;13.770;2022-07-03T10:01:39;27.00;43.20
65752;DHT22;52486;51.098;13.770;2022-07-03T10:04:13;26.90;43.10
65752;DHT22;52486;51.098;13.770;2022-07-03T10:09:19;27.00;43.20
65752;DHT22;52486;51.098;13.770;2022-07-03T10:11:44;27.00;43.30
65752;DHT22;52486;51.098;13.770;2022-07-03T10:14:16;27.00;43.20
65752;DHT22;52486;51.098;13.770;2022-07-03T10:16:42;27.00;43.10
65752;DHT22;52486;51.098;13.770;2022-07-03T10:19:21;27.00;43.20
65752;DHT22;52486;51.098;13.770;2022-07-03T10:21:51;27.00;43.10
65752;DHT22;52486;51.098;13.770;2022-07-03T10:24:20;27.00;43.10
65752;DHT22;52486;51.098;13.770;2022-07-03T10:26:46;27.10;43.20
65752;DHT22;52486;51.098;13.770;2022-07-03T10:29:14;27.10;43.20
65752;DHT22;52486;51.098;13.770;2022-07-03T10:31:43;27.10;43.20
65752;DHT22;52486;51.098;13.770;2022-07-03T10:34:10;27.10;43.20
65752;DHT22;52486;51.098;13.770;2022-07-03T10:36:37;27.10;43.20
65752;DHT22;52486;51.098;13.770;2022-07-03T10:39:06;27.10;43.20
65752;DHT22;52486;51.098;13.770;2022-07-03T10:41:38;27.20;43.20
65752;DHT22;52486;51.098;13.770;2022-07-03T10:44:24;27.20;43.20
65752;DHT22;52486;51.098;13.770;2022-07-03T10:50:13;27.20;43.20
65752;DHT22;52486;51.098;13.770;2022-07-03T10:52:40;27.20;43.10
65752;DHT22;52486;51.098;13.770;2022-07-03T10:55:06;27.20;43.10
65752;DHT22;52486;51.098;13.770;2022-07-03T10:57:34;27.20;43.10
65752;DHT22;52486;51.098;13.770;2022-07-03T11:00:02;27.20;43.10
65752;DHT22;52486;51.098;13.770;2022-07-03T11:02:41;27.30;43.20
65752;DHT22;52486;51.098;13.770;2022-07-03T11:05:16;27.30;43.10
65752;DHT22;52486;51.098;13.770;2022-07-03T11:13:11;27.30;43.80
65752;DHT22;52486;51.098;13.770;2022-07-03T11:15:45;27.30;43.10
65752;DHT22;52486;51.098;13.770;2022-07-03T11:18:15;27.40;43.10
65752;DHT22;52486;51.098;13.770;2022-07-03T11:25:52;27.40;43.80
65752;DHT22;52486;51.098;13.770;2022-07-03T11:34:00;27.50;43.10
65752;DHT22;52486;51.098;13.770;2022-07-03T11:36:33;27.50;43.00
65752;DHT22;52486;51.098;13.770;2022-07-03T11:41:29;27.50;43.00
65752;DHT22;52486;51.098;13.770;2022-07-03T11:43:55;27.50;43.00
65752;DHT22;52486;51.098;13.770;2022-07-03T11:46:26;27.50;43.00
65752;DHT22;52486;51.098;13.770;2022-07-03T11:49:09;27.50;42.90
65752;DHT22;52486;51.098;13.770;2022-07-03T11:51:36;27.60;43.00
65752;DHT22;52486;51.098;13.770;2022-07-03T11:54:02;27.60;43.00
65752;DHT22;52486;51.098;13.770;2022-07-03T11:56:29;27.60;43.00
65752;DHT22;52486;51.098;13.770;2022-07-03T11:58:57;27.60;43.00
65752;DHT22;52486;51.098;13.770;2022-07-03T12:06:18;27.70;43.00
65752;DHT22;52486;51.098;13.770;2022-07-03T12:08:44;27.70;43.00
65752;DHT22;52486;51.098;13.770;2022-07-03T12:11:15;27.70;42.90
65752;DHT22;52486;51.098;13.770;2022-07-03T12:13:42;27.70;42.90
65752;DHT22;52486;51.098;13.770;2022-07-03T12:16:14;27.70;42.90
65752;DHT22;52486;51.098;13.770;2022-07-03T12:18:47;27.80;42.90
65752;DHT22;52486;51.098;13.770;2022-07-03T12:21:14;27.80;42.90
65752;DHT22;52486;51.098;13.770;2022-07-03T12:23:46;27.80;42.90
65752;DHT22;52486;51.098;13.770;2022-07-03T12:26:12;27.80;42.90
65752;DHT22;52486;51.098;13.770;2022-07-03T12:28:38;27.80;42.80
65752;DHT22;52486;51.098;13.770;2022-07-03T12:31:04;27.80;42.80
65752;DHT22;52486;51.098;13.770;2022-07-03T12:33:30;27.90;42.80
65752;DHT22;52486;51.098;13.770;2022-07-03T12:36:08;27.90;42.80
65752;DHT22;52486;51.098;13.770;2022-07-03T12:38:36;27.90;42.80
65752;DHT22;52486;51.098;13.770;2022-07-03T12:41:06;27.90;42.80
65752;DHT22;52486;51.098;13.770;2022-07-03T12:43:42;27.90;42.80
65752;DHT22;52486;51.098;13.770;2022-07-03T12:46:22;27.90;42.70
65752;DHT22;52486;51.098;13.770;2022-07-03T12:48:55;27.90;42.70
65752;DHT22;52486;51.098;13.770;2022-07-03T12:54:22;28.00;42.70
65752;DHT22;52486;51.098;13.770;2022-07-03T12:57:07;28.00;42.70
65752;DHT22;52486;51.098;13.770;2022-07-03T13:02:30;28.00;42.70
65752;DHT22;52486;51.098;13.770;2022-07-03T13:04:58;28.00;42.70
65752;DHT22;52486;51.098;13.770;2022-07-03T13:07:30;28.10;42.80
65752;DHT22;52486;51.098;13.770;2022-07-03T13:10:05;28.00;42.60
65752;DHT22;52486;51.098;13.770;2022-07-03T13:12:31;28.10;42.60
65752;DHT22;52486;51.098;13.770;2022-07-03T13:14:58;28.10;42.70
65752;DHT22;52486;51.098;13.770;2022-07-03T13:17:49;28.10;42.60
65752;DHT22;52486;51.098;13.770;2022-07-03T13:20:10;28.10;42.60
65752;DHT22;52486;51.098;13.770;2022-07-03T13:22:36;28.10;42.60
65752;DHT22;52486;51.098;13.770;2022-07-03T13:25:01;28.10;42.60
65752;DHT22;52486;51.098;13.770;2022-07-03T13:27:27;28.10;42.60
65752;DHT22;52486;51.098;13.770;2022-07-03T13:29:53;28.10;42.60
65752;DHT22;52486;51.098;13.770;2022-07-03T13:32:18;28.10;42.60
65752;DHT22;52486;51.098;13.770;2022-07-03T13:34:44;28.20;42.60
65752;DHT22;52486;51.098;13.770;2022-07-03T13:37:09;28.20;42.60
65752;DHT22;52486;51.098;13.770;2022-07-03T13:39:35;28.20;42.60
65752;DHT22;52486;51.098;13.770;2022-07-03T13:42:01;28.20;42.60
65752;DHT22;52486;51.098;13.770;2022-07-03T13:44:29;28.20;42.60
65752;DHT22;52486;51.098;13.770;2022-07-03T13:46:55;28.20;43.30
65752;DHT22;52486;51.098;13.770;2022-07-03T13:49:20;28.20;42.60
65752;DHT22;52486;51.098;13.770;2022-07-03T13:51:46;28.20;42.50
65752;DHT22;52486;51.098;13.770;2022-07-03T13:54:12;28.20;42.50
65752;DHT22;52486;51.098;13.770;2022-07-03T13:56:38;28.20;42.50
65752;DHT22;52486;51.098;13.770;2022-07-03T13:59:03;28.20;43.10
65752;DHT22;52486;51.098;13.770;2022-07-03T14:01:29;28.30;42.50
65752;DHT22;52486;51.098;13.770;2022-07-03T14:03:54;28.30;42.50
65752;DHT22;52486;51.098;13.770;2022-07-03T14:06:20;28.30;42.50
65752;DHT22;52486;51.098;13.770;2022-07-03T14:08:46;28.30;42.50
65752;DHT22;52486;51.098;13.770;2022-07-03T14:11:11;28.30;42.50
65752;DHT22;52486;51.098;13.770;2022-07-03T14:13:37;28.30;42.50
65752;DHT22;52486;51.098;13.770;2022-07-03T14:16:03;28.30;42.40
65752;DHT22;52486;51.098;13.770;2022-07-03T14:18:28;28.30;42.40
65752;DHT22;52486;51.098;13.770;2022-07-03T14:20:54;28.30;42.40
65752;DHT22;52486;51.098;13.770;2022-07-03T14:23:20;28.30;42.40
65752;DHT22;52486;51.098;13.770;2022-07-03T14:25:45;28.30;42.40
65752;DHT22;52486;51.098;13.770;2022-07-03T14:28:11;28.30;42.40
65752;DHT22;52486;51.098;13.770;2022-07-03T14:30:55;28.30;42.30
65752;DHT22;52486;51.098;13.770;2022-07-03T14:33:39;28.30;42.40
65752;DHT22;52486;51.098;13.770;2022-07-03T14:36:05;28.40;42.40
65752;DHT22;52486;51.098;13.770;2022-07-03T14:38:31;28.40;42.40
65752;DHT22;52486;51.098;13.770;2022-07-03T14:40:56;28.40;42.40
65752;DHT22;52486;51.098;13.770;2022-07-03T14:43:22;28.40;42.40
65752;DHT22;52486;51.098;13.770;2022-07-03T14:45:48;28.40;42.40
65752;DHT22;52486;51.098;13.770;2022-07-03T14:48:13;28.40;42.40
65752;DHT22;52486;51.098;13.770;2022-07-03T14:50:39;28.40;42.40
65752;DHT22;52486;51.098;13.770;2022-07-03T14:53:06;28.40;42.40
65752;DHT22;52486;51.098;13.770;2022-07-03T14:55:37;28.40;42.30
65752;DHT22;52486;51.098;13.770;2022-07-03T14:58:09;28.40;42.40
65752;DHT22;52486;51.098;13.770;2022-07-03T15:00:40;28.40;42.30
65752;DHT22;52486;51.098;13.770;2022-07-03T15:03:11;28.40;42.30
65752;DHT22;52486;51.098;13.770;2022-07-03T15:05:40;28.40;42.30
65752;DHT22;52486;51.098;13.770;2022-07-03T15:08:26;28.50;42.30
65752;DHT22;52486;51.098;13.770;2022-07-03T15:10:55;28.50;42.30
65752;DHT22;52486;51.098;13.770;2022-07-03T15:13:21;28.50;42.30
65752;DHT22;52486;51.098;13.770;2022-07-03T15:15:48;28.50;42.30
65752;DHT22;52486;51.098;13.770;2022-07-03T15:18:17;28.50;42.30
65752;DHT22;52486;51.098;13.770;2022-07-03T15:20:43;28.50;42.30
65752;DHT22;52486;51.098;13.770;2022-07-03T15:23:09;28.50;42.20
65752;DHT22;52486;51.098;13.770;2022-07-03T15:25:39;28.50;42.20
65752;DHT22;52486;51.098;13.770;2022-07-03T15:28:09;28.60;42.20
65752;DHT22;52486;51.098;13.770;2022-07-03T15:30:35;28.60;42.20
65752;DHT22;52486;51.098;13.770;2022-07-03T15:33:01;28.60;42.20
65752;DHT22;52486;51.098;13.770;2022-07-03T15:35:27;28.60;42.20
65752;DHT22;52486;51.098;13.770;2022-07-03T15:37:56;28.60;42.20
65752;DHT22;52486;51.098;13.770;2022-07-03T15:40:51;28.60;42.20
65752;DHT22;52486;51.098;13.770;2022-07-03T15:43:51;28.60;42.10
65752;DHT22;52486;51.098;13.770;2022-07-03T15:49:19;28.60;42.10
65752;DHT22;52486;51.098;13.770;2022-07-03T15:52:19;28.60;42.10
65752;DHT22;52486;51.098;13.770;2022-07-03T15:57:28;28.60;42.10
65752;DHT22;52486;51.098;13.770;2022-07-03T16:00:05;28.60;42.00
65752;DHT22;52486;51.098;13.770;2022-07-03T16:05:26;28.70;42.10
65752;DHT22;52486;51.098;13.770;2022-07-03T16:07:53;28.70;42.10
65752;DHT22;52486;51.098;13.770;2022-07-03T16:10:21;28.70;42.10
65752;DHT22;52486;51.098;13.770;2022-07-03T16:12:47;28.70;42.10
65752;DHT22;52486;51.098;13.770;2022-07-03T16:15:15;28.70;42.10
65752;DHT22;52486;51.098;13.770;2022-07-03T16:17:41;28.70;42.00
65752;DHT22;52486;51.098;13.770;2022-07-03T16:20:08;28.70;42.00
65752;DHT22;52486;51.098;13.770;2022-07-03T16:22:35;28.70;42.00
65752;DHT22;52486;51.098;13.770;2022-07-03T16:25:03;28.70;42.00
65752;DHT22;52486;51.098;13.770;2022-07-03T16:27:29;28.70;42.00
65752;DHT22;52486;51.098;13.770;2022-07-03T16:29:55;28.70;42.00
65752;DHT22;52486;51.098;13.770;2022-07-03T16:32:28;28.70;42.10
65752;DHT22;52486;51.098;13.770;2022-07-03T16:38:01;28.70;41.90
65752;DHT22;52486;51.098;13.770;2022-07-03T16:40:28;28.70;41.80
65752;DHT22;52486;51.098;13.770;2022-07-03T16:42:54;28.70;41.90